createdAt,value
2018-02-24T05:00:33.922Z,-3.04
2018-02-24T05:00:59.408Z,-2.98
2018-02-24T05:01:24.856Z,-2.97
2018-02-24T05:01:50.369Z,-2.99
2018-02-24T05:02:15.859Z,-2.97
2018-02-24T05:02:41.340Z,-2.94
2018-02-24T05:03:06.834Z,-2.99
2018-02-24T05:03:32.431Z,-2.99
2018-02-24T05:03:57.928Z,-2.99
2018-02-24T05:04:23.390Z,-2.95
2018-02-24T05:04:48.882Z,-2.97
2018-02-24T05:05:14.344Z,-2.99
2018-02-24T05:05:39.825Z,-2.99
2018-02-24T05:06:05.325Z,-2.95
2018-02-24T05:06:30.809Z,-3.02
2018-02-24T05:06:56.305Z,-2.97
2018-02-24T05:07:21.758Z,-2.97
2018-02-24T05:07:47.219Z,-2.97
2018-02-24T05:08:12.678Z,-2.95
2018-02-24T05:08:38.188Z,-2.94
2018-02-24T05:09:03.691Z,-2.91
2018-02-24T05:09:29.173Z,-3.01
2018-02-24T05:09:54.658Z,-2.94
2018-02-24T05:10:20.338Z,-2.98
2018-02-24T05:10:45.665Z,-2.95
2018-02-24T05:11:11.168Z,-2.97
2018-02-24T05:11:36.912Z,-2.99
2018-02-24T05:12:02.388Z,-2.99
2018-02-24T05:12:27.864Z,-2.99
2018-02-24T05:12:53.324Z,-2.98
2018-02-24T05:13:18.856Z,-2.97
2018-02-24T05:13:44.358Z,-2.92
2018-02-24T05:14:09.803Z,-2.97
2018-02-24T05:14:35.293Z,-3.04
2018-02-24T05:15:00.769Z,-2.98
2018-02-24T05:15:26.257Z,-3.02
2018-02-24T05:15:51.875Z,-2.98
2018-02-24T05:16:17.354Z,-2.99
2018-02-24T05:16:42.870Z,-2.99
2018-02-24T05:17:08.272Z,-2.99
2018-02-24T05:17:33.757Z,-3.02
2018-02-24T05:17:59.314Z,-3.01
2018-02-24T05:18:24.791Z,-3.02
2018-02-24T05:18:50.258Z,-2.98
2018-02-24T05:19:15.680Z,-2.99
2018-02-24T05:19:41.179Z,-3.04
2018-02-24T05:20:06.641Z,-3.01
2018-02-24T05:20:32.155Z,-2.97
2018-02-24T05:20:57.603Z,-3.02
2018-02-24T05:21:23.138Z,-2.97
2018-02-24T05:21:48.605Z,-2.98
2018-02-24T05:22:14.090Z,-3.06
2018-02-24T05:22:39.536Z,-2.97
2018-02-24T05:23:05.002Z,-3.07
2018-02-24T05:23:30.498Z,-2.99
2018-02-24T05:23:55.922Z,-3.09
2018-02-24T05:24:21.376Z,-3.06
2018-02-24T05:24:46.841Z,-3.07
2018-02-24T05:25:12.291Z,-3.02
2018-02-24T05:25:37.760Z,-3.02
2018-02-24T05:26:03.282Z,-3.12
2018-02-24T05:26:28.733Z,-3.04
2018-02-24T05:26:54.225Z,-3.09
2018-02-24T05:27:19.754Z,-3.07
2018-02-24T05:27:45.223Z,-3.06
2018-02-24T05:28:10.696Z,-3.01
2018-02-24T05:28:36.194Z,-3.1
2018-02-24T05:29:01.717Z,-3.07
2018-02-24T05:29:27.185Z,-3.09
2018-02-24T05:29:52.711Z,-3.09
2018-02-24T05:31:01.404Z,-3.06
2018-02-24T05:31:26.887Z,-3.1
2018-02-24T05:31:52.379Z,-3.06
2018-02-24T05:32:17.893Z,-3.07
2018-02-24T05:32:43.402Z,-3.07
2018-02-24T05:33:08.871Z,-3.02
2018-02-24T05:33:34.362Z,-3.01
2018-02-24T05:33:59.841Z,-3.07
2018-02-24T05:34:25.376Z,-2.99
2018-02-24T05:34:50.880Z,-3.06
2018-02-24T05:35:16.396Z,-3.07
2018-02-24T05:35:41.866Z,-3.06
2018-02-24T05:36:07.358Z,-3.07
2018-02-24T05:36:32.853Z,-3.01
2018-02-24T05:36:58.322Z,-3.09
2018-02-24T05:37:23.803Z,-3.02
2018-02-24T05:37:49.296Z,-3.09
2018-02-24T05:38:14.782Z,-3.12
2018-02-24T05:38:40.297Z,-3.1
2018-02-24T05:39:05.773Z,-3.02
2018-02-24T05:39:31.280Z,-3.02
2018-02-24T05:39:56.705Z,-3.06
2018-02-24T05:40:22.173Z,-3.1
2018-02-24T05:40:47.630Z,-3.09
2018-02-24T05:41:13.093Z,-3.1
2018-02-24T05:41:38.555Z,-3.09
2018-02-24T05:42:04.032Z,-3.1
2018-02-24T05:42:29.519Z,-3.07
2018-02-24T05:42:55.003Z,-3.06
2018-02-24T05:43:20.662Z,-3.02
2018-02-24T05:43:46.106Z,-3.07
2018-02-24T05:44:11.588Z,-3.09
2018-02-24T05:44:37.164Z,-3.07
2018-02-24T05:45:02.620Z,-3.1
2018-02-24T05:45:28.110Z,-3.01
2018-02-24T05:45:53.578Z,-3.06
2018-02-24T05:46:19.066Z,-3.07
2018-02-24T05:46:44.542Z,-3.1
2018-02-24T05:47:10.132Z,-3.09
2018-02-24T05:47:35.684Z,-3.17
2018-02-24T05:48:01.174Z,-3.13
2018-02-24T05:48:26.677Z,-3.13
2018-02-24T05:48:52.165Z,-3.19
2018-02-24T05:49:17.676Z,-3.13
2018-02-24T05:49:43.238Z,-3.2
2018-02-24T05:50:08.701Z,-3.13
2018-02-24T05:50:34.182Z,-3.15
2018-02-24T05:50:59.712Z,-3.16
2018-02-24T05:51:25.181Z,-3.13
2018-02-24T05:51:50.815Z,-3.12
2018-02-24T05:52:16.565Z,-3.22
2018-02-24T05:52:42.635Z,-3.13
2018-02-24T05:53:36.254Z,-3.17
2018-02-24T05:54:01.743Z,-3.17
2018-02-24T05:54:27.275Z,-3.13
2018-02-24T05:54:52.726Z,-3.16
2018-02-24T05:55:18.222Z,-3.15
2018-02-24T05:55:43.689Z,-3.16
2018-02-24T05:56:09.204Z,-3.1
2018-02-24T05:56:34.716Z,-3.17
2018-02-24T05:57:00.423Z,-3.09
2018-02-24T05:57:26.141Z,-3.13
2018-02-24T05:57:51.790Z,-3.1
2018-02-24T05:58:17.243Z,-3.06
2018-02-24T05:58:43.433Z,-3.15
2018-02-24T05:59:09.214Z,-3.17
2018-02-24T05:59:35.483Z,-3.2
2018-02-24T06:00:00.955Z,-3.1
2018-02-24T06:00:26.782Z,-3.12
2018-02-24T06:00:52.255Z,-3.1
2018-02-24T06:01:17.716Z,-3.13
2018-02-24T06:01:43.212Z,-3.13
2018-02-24T06:02:08.734Z,-3.19
2018-02-24T06:02:35.100Z,-3.13
2018-02-24T06:03:01.005Z,-3.13
2018-02-24T06:03:26.484Z,-3.15
2018-02-24T06:03:51.969Z,-3.13
2018-02-24T06:04:17.413Z,-3.15
2018-02-24T06:04:43.007Z,-3.1
2018-02-24T06:05:08.459Z,-3.19
2018-02-24T06:05:33.989Z,-3.12
2018-02-24T06:05:59.469Z,-3.22
2018-02-24T06:06:24.947Z,-3.16
2018-02-24T06:06:50.461Z,-3.13
2018-02-24T06:07:15.950Z,-3.1
2018-02-24T06:07:41.432Z,-3.22
2018-02-24T06:08:06.868Z,-3.13
2018-02-24T06:08:32.346Z,-3.15
2018-02-24T06:08:57.843Z,-3.15
2018-02-24T06:09:23.428Z,-3.16
2018-02-24T06:09:48.934Z,-3.1
2018-02-24T06:10:14.437Z,-3.15
2018-02-24T06:10:39.881Z,-3.12
2018-02-24T06:11:05.373Z,-3.17
2018-02-24T06:11:30.850Z,-3.12
2018-02-24T06:11:56.331Z,-3.12
2018-02-24T06:12:21.816Z,-3.16
2018-02-24T06:12:47.286Z,-3.13
2018-02-24T06:13:12.730Z,-3.22
2018-02-24T06:13:38.190Z,-3.19
2018-02-24T06:14:03.679Z,-3.2
2018-02-24T06:14:29.176Z,-3.23
2018-02-24T06:14:54.652Z,-3.2
2018-02-24T06:15:20.126Z,-3.17
2018-02-24T06:15:45.614Z,-3.17
2018-02-24T06:16:11.058Z,-3.16
2018-02-24T06:16:36.541Z,-3.17
2018-02-24T06:17:02.062Z,-3.17
2018-02-24T06:17:27.538Z,-3.2
2018-02-24T06:17:53.012Z,-3.28
2018-02-24T06:18:18.460Z,-3.2
2018-02-24T06:18:43.982Z,-3.23
2018-02-24T06:19:09.444Z,-3.22
2018-02-24T06:19:34.882Z,-3.2
2018-02-24T06:20:00.372Z,-3.16
2018-02-24T06:20:25.878Z,-3.17
2018-02-24T06:20:51.352Z,-3.22
2018-02-24T06:21:16.835Z,-3.2
2018-02-24T06:21:42.363Z,-3.28
2018-02-24T06:22:07.918Z,-3.22
2018-02-24T06:22:33.346Z,-3.23
2018-02-24T06:22:58.816Z,-3.2
2018-02-24T06:23:24.306Z,-3.19
2018-02-24T06:23:49.854Z,-3.17
2018-02-24T06:24:15.337Z,-3.2
2018-02-24T06:24:40.866Z,-3.27
2018-02-24T06:25:06.347Z,-3.22
2018-02-24T06:25:31.829Z,-3.15
2018-02-24T06:25:57.396Z,-3.22
2018-02-24T06:26:22.809Z,-3.17
2018-02-24T06:26:48.242Z,-3.23
2018-02-24T06:27:13.767Z,-3.17
2018-02-24T06:27:39.244Z,-3.22
2018-02-24T06:28:04.731Z,-3.28
2018-02-24T06:28:30.203Z,-3.17
2018-02-24T06:28:55.739Z,-3.2
2018-02-24T06:29:21.234Z,-3.19
2018-02-24T06:29:46.867Z,-3.19
2018-02-24T06:30:12.464Z,-3.19
2018-02-24T06:30:37.900Z,-3.19
2018-02-24T06:31:03.469Z,-3.2
2018-02-24T06:31:28.920Z,-3.19
2018-02-24T06:31:54.517Z,-3.19
2018-02-24T06:32:19.987Z,-3.2
2018-02-24T06:32:45.499Z,-3.19
2018-02-24T06:33:10.982Z,-3.19
2018-02-24T06:33:36.513Z,-3.2
2018-02-24T06:34:02.074Z,-3.15
2018-02-24T06:34:27.592Z,-3.28
2018-02-24T06:34:53.051Z,-3.16
2018-02-24T06:35:18.550Z,-3.19
2018-02-24T06:35:44.018Z,-3.19
2018-02-24T06:36:09.469Z,-3.16
2018-02-24T06:36:35.035Z,-3.13
2018-02-24T06:37:00.500Z,-3.13
2018-02-24T06:37:25.982Z,-3.13
2018-02-24T06:37:51.523Z,-3.12
2018-02-24T06:38:17.045Z,-3.12
2018-02-24T06:38:42.584Z,-3.09
2018-02-24T06:39:08.055Z,-3.15
2018-02-24T06:39:33.617Z,-3.12
2018-02-24T06:39:59.030Z,-3.16
2018-02-24T06:40:24.543Z,-3.13
2018-02-24T06:40:50.082Z,-3.15
2018-02-24T06:41:15.610Z,-3.12
2018-02-24T06:41:41.147Z,-3.15
2018-02-24T06:42:06.628Z,-3.12
2018-02-24T06:42:32.193Z,-3.12
2018-02-24T06:42:57.570Z,-3.12
2018-02-24T06:43:23.044Z,-3.19
2018-02-24T06:43:48.510Z,-3.16
2018-02-24T06:44:14.028Z,-3.15
2018-02-24T06:44:39.502Z,-3.15
2018-02-24T06:45:04.961Z,-3.12
2018-02-24T06:45:30.479Z,-3.19
2018-02-24T06:45:55.935Z,-3.16
2018-02-24T06:46:21.443Z,-3.19
2018-02-24T06:46:46.950Z,-3.1
2018-02-24T06:47:12.515Z,-3.15
2018-02-24T06:47:37.967Z,-3.06
2018-02-24T06:48:03.411Z,-3.06
2018-02-24T06:48:28.782Z,-3.09
2018-02-24T06:48:54.273Z,-3.16
2018-02-24T06:49:19.786Z,-3.1
2018-02-24T06:49:45.303Z,-2.99
2018-02-24T06:50:10.794Z,-3.07
2018-02-24T06:50:36.245Z,-3.07
2018-02-24T06:51:01.769Z,-3.09
2018-02-24T06:51:27.197Z,-3.09
2018-02-24T06:51:52.764Z,-3.09
2018-02-24T06:52:18.248Z,-3.07
2018-02-24T06:52:43.885Z,-3.09
2018-02-24T06:53:09.415Z,-3.09
2018-02-24T06:53:34.748Z,-3.17
2018-02-24T06:54:00.208Z,-3.1
2018-02-24T06:54:25.702Z,-3.02
2018-02-24T06:54:51.167Z,-3.07
2018-02-24T06:55:16.692Z,-3.06
2018-02-24T06:55:42.187Z,-3.13
2018-02-24T06:56:07.723Z,-3.02
2018-02-24T06:56:33.158Z,-3.12
2018-02-24T06:56:58.727Z,-3.06
2018-02-24T06:57:24.251Z,-3.1
2018-02-24T06:57:49.726Z,-3.12
2018-02-24T06:58:15.177Z,-3.07
2018-02-24T06:58:40.658Z,-3.01
2018-02-24T06:59:06.169Z,-3.02
2018-02-24T06:59:31.702Z,-3.09
2018-02-24T06:59:57.180Z,-2.99
2018-02-24T07:00:22.706Z,-3.01
2018-02-24T07:00:48.204Z,-2.99
2018-02-24T07:01:13.702Z,-3.02
2018-02-24T07:01:39.203Z,-2.99
2018-02-24T07:02:04.694Z,-3.02
2018-02-24T07:02:30.184Z,-2.98
2018-02-24T07:02:55.648Z,-2.97
2018-02-24T07:03:21.159Z,-2.98
2018-02-24T07:03:46.694Z,-3.01
2018-02-24T07:04:12.179Z,-2.98
2018-02-24T07:04:37.661Z,-3.04
2018-02-24T07:05:03.126Z,-2.99
2018-02-24T07:05:28.624Z,-2.99
2018-02-24T07:05:54.115Z,-2.98
2018-02-24T07:06:19.601Z,-2.99
2018-02-24T07:06:45.103Z,-2.91
2018-02-24T07:07:10.659Z,-2.95
2018-02-24T07:07:36.097Z,-2.97
2018-02-24T07:08:01.605Z,-2.88
2018-02-24T07:08:27.096Z,-2.99
2018-02-24T07:08:52.610Z,-2.92
2018-02-24T07:09:18.701Z,-2.98
2018-02-24T07:09:44.214Z,-2.98
2018-02-24T07:10:09.706Z,-2.95
2018-02-24T07:10:35.232Z,-2.99
2018-02-24T07:11:00.730Z,-2.99
2018-02-24T07:11:26.228Z,-2.92
2018-02-24T07:11:51.706Z,-2.98
2018-02-24T07:12:17.190Z,-2.97
2018-02-24T07:12:42.744Z,-2.97
2018-02-24T07:13:08.244Z,-2.99
2018-02-24T07:13:33.756Z,-2.92
2018-02-24T07:13:59.292Z,-2.99
2018-02-24T07:14:24.816Z,-2.97
2018-02-24T07:14:50.381Z,-2.92
2018-02-24T07:15:15.858Z,-2.97
2018-02-24T07:15:41.387Z,-2.97
2018-02-24T07:16:06.914Z,-2.94
2018-02-24T07:16:32.405Z,-2.97
2018-02-24T07:16:57.951Z,-2.99
2018-02-24T07:17:23.450Z,-2.97
2018-02-24T07:17:49.000Z,-2.92
2018-02-24T07:18:14.527Z,-2.99
2018-02-24T07:18:39.999Z,-2.92
2018-02-24T07:19:05.467Z,-2.84
2018-02-24T07:19:30.959Z,-2.94
2018-02-24T07:19:56.466Z,-2.95
2018-02-24T07:21:00.098Z,-2.89
2018-02-24T07:21:25.581Z,-2.92
2018-02-24T07:21:51.040Z,-2.89
2018-02-24T07:22:16.635Z,-2.78
2018-02-24T07:22:42.145Z,-2.88
2018-02-24T07:23:45.736Z,-2.83
2018-02-24T07:24:11.398Z,-2.86
2018-02-24T07:24:36.870Z,-2.78
2018-02-24T07:25:02.396Z,-2.84
2018-02-24T07:25:27.958Z,-2.86
2018-02-24T07:25:53.539Z,-2.89
2018-02-24T07:26:19.129Z,-2.83
2018-02-24T07:26:44.613Z,-2.77
2018-02-24T07:27:10.129Z,-2.81
2018-02-24T07:27:35.660Z,-2.7
2018-02-24T07:28:01.175Z,-2.74
2018-02-24T07:28:26.767Z,-2.73
2018-02-24T07:28:52.082Z,-2.73
2018-02-24T07:29:17.603Z,-2.63
2018-02-24T07:29:43.078Z,-2.56
2018-02-24T07:30:08.499Z,-2.59
2018-02-24T07:30:34.034Z,-2.58
2018-02-24T07:30:59.786Z,-2.62
2018-02-24T07:31:25.202Z,-2.6
2018-02-24T07:31:50.970Z,-2.6
2018-02-24T07:32:59.633Z,-2.6
2018-02-24T07:33:25.116Z,-2.62
2018-02-24T07:33:50.656Z,-2.56
2018-02-24T07:34:16.159Z,-2.65
2018-02-24T07:35:09.906Z,-2.58
2018-02-24T07:35:35.397Z,-2.6
2018-02-24T07:36:00.859Z,-2.59
2018-02-24T07:36:26.329Z,-2.59
2018-02-24T07:36:51.807Z,-2.6
2018-02-24T07:37:17.309Z,-2.45
2018-02-24T07:37:42.802Z,-2.59
2018-02-24T07:38:08.280Z,-2.58
2018-02-24T07:38:33.722Z,-2.5
2018-02-24T07:38:59.182Z,-2.62
2018-02-24T07:39:24.664Z,-2.56
2018-02-24T07:39:50.172Z,-2.53
2018-02-24T07:40:15.575Z,-2.56
2018-02-24T07:40:41.057Z,-2.52
2018-02-24T07:41:06.498Z,-2.44
2018-02-24T07:41:32.010Z,-2.5
2018-02-24T07:41:57.616Z,-2.48
2018-02-24T07:42:23.118Z,-2.48
2018-02-24T07:42:48.505Z,-2.5
2018-02-24T07:43:13.990Z,-2.48
2018-02-24T07:43:39.499Z,-2.45
2018-02-24T07:44:05.124Z,-2.45
2018-02-24T07:44:30.661Z,-2.4
2018-02-24T07:44:56.114Z,-2.42
2018-02-24T07:45:21.609Z,-2.35
2018-02-24T07:45:47.078Z,-2.34
2018-02-24T07:46:12.540Z,-2.32
2018-02-24T07:46:38.085Z,-2.35
2018-02-24T07:47:03.580Z,-2.35
2018-02-24T07:47:29.090Z,-2.28
2018-02-24T07:47:54.614Z,-2.3
2018-02-24T07:48:20.095Z,-2.22
2018-02-24T07:48:45.565Z,-2.25
2018-02-24T07:49:11.046Z,-2.23
2018-02-24T07:49:36.527Z,-2.22
2018-02-24T07:50:01.997Z,-2.23
2018-02-24T07:50:27.468Z,-2.22
2018-02-24T07:50:52.899Z,-2.21
2018-02-24T07:51:18.428Z,-2.15
2018-02-24T07:51:43.926Z,-2.15
2018-02-24T07:52:09.539Z,-2.23
2018-02-24T07:52:35.652Z,-2.19
2018-02-24T07:53:01.241Z,-2.18
2018-02-24T07:53:26.656Z,-2.21
2018-02-24T07:53:52.100Z,-2.18
2018-02-24T07:54:17.681Z,-2.07
2018-02-24T07:54:43.041Z,-2.1
2018-02-24T07:55:08.568Z,-2.1
2018-02-24T07:55:34.055Z,-2.1
2018-02-24T07:55:59.559Z,-2.12
2018-02-24T07:56:25.027Z,-2.16
2018-02-24T07:56:50.667Z,-2.18
2018-02-24T07:57:16.107Z,-2.21
2018-02-24T07:57:41.897Z,-2.21
2018-02-24T07:58:07.541Z,-2.07
2018-02-24T07:58:33.044Z,-2.12
2018-02-24T07:58:58.485Z,-2.12
2018-02-24T07:59:23.963Z,-2.08
2018-02-24T07:59:49.422Z,-2.07
2018-02-24T08:00:14.980Z,-2.01
2018-02-24T08:00:40.406Z,-2.02
2018-02-24T08:01:05.925Z,-2.04
2018-02-24T08:01:31.394Z,-2.07
2018-02-24T08:01:56.861Z,-1.98
2018-02-24T08:02:22.345Z,-2.08
2018-02-24T08:02:47.824Z,-2.04
2018-02-24T08:03:13.441Z,-1.97
2018-02-24T08:03:38.902Z,-2.05
2018-02-24T08:04:04.396Z,-1.97
2018-02-24T08:04:29.946Z,-1.94
2018-02-24T08:04:55.341Z,-1.95
2018-02-24T08:05:20.843Z,-1.95
2018-02-24T08:05:46.290Z,-1.95
2018-02-24T08:06:11.815Z,-1.9
2018-02-24T08:06:37.280Z,-1.98
2018-02-24T08:07:02.785Z,-1.89
2018-02-24T08:07:28.264Z,-1.87
2018-02-24T08:07:53.713Z,-1.89
2018-02-24T08:08:19.315Z,-1.92
2018-02-24T08:08:44.797Z,-1.87
2018-02-24T08:09:10.267Z,-1.84
2018-02-24T08:09:35.727Z,-1.89
2018-02-24T08:10:01.213Z,-1.89
2018-02-24T08:10:26.663Z,-1.86
2018-02-24T08:10:52.195Z,-1.89
2018-02-24T08:11:17.678Z,-1.87
2018-02-24T08:11:43.129Z,-1.87
2018-02-24T08:12:08.631Z,-1.84
2018-02-24T08:12:34.139Z,-1.87
2018-02-24T08:12:59.563Z,-1.84
2018-02-24T08:13:25.057Z,-1.89
2018-02-24T08:13:50.621Z,-1.89
2018-02-24T08:14:16.094Z,-1.89
2018-02-24T08:14:41.532Z,-1.87
2018-02-24T08:15:07.089Z,-1.89
2018-02-24T08:15:32.531Z,-1.83
2018-02-24T08:15:58.043Z,-1.83
2018-02-24T08:16:23.512Z,-1.83
2018-02-24T08:16:48.967Z,-1.83
2018-02-24T08:17:14.444Z,-1.9
2018-02-24T08:17:39.954Z,-1.82
2018-02-24T08:18:05.436Z,-1.86
2018-02-24T08:18:30.925Z,-1.77
2018-02-24T08:18:56.348Z,-1.83
2018-02-24T08:19:21.803Z,-1.74
2018-02-24T08:19:47.404Z,-1.79
2018-02-24T08:20:12.795Z,-1.82
2018-02-24T08:20:38.295Z,-1.79
2018-02-24T08:21:03.820Z,-1.83
2018-02-24T08:21:29.284Z,-1.71
2018-02-24T08:21:54.786Z,-1.71
2018-02-24T08:22:20.273Z,-1.64
2018-02-24T08:22:45.743Z,-1.66
2018-02-24T08:23:11.245Z,-1.62
2018-02-24T08:23:36.740Z,-1.61
2018-02-24T08:24:02.261Z,-1.71
2018-02-24T08:24:27.746Z,-1.58
2018-02-24T08:24:53.266Z,-1.59
2018-02-24T08:25:18.771Z,-1.59
2018-02-24T08:25:44.185Z,-1.54
2018-02-24T08:26:09.637Z,-1.62
2018-02-24T08:26:35.084Z,-1.56
2018-02-24T08:27:00.559Z,-1.5
2018-02-24T08:27:26.046Z,-1.54
2018-02-24T08:27:51.511Z,-1.43
2018-02-24T08:28:17.039Z,-1.46
2018-02-24T08:28:42.510Z,-1.48
2018-02-24T08:29:08.014Z,-1.4
2018-02-24T08:29:33.569Z,-1.41
2018-02-24T08:29:59.054Z,-1.4
2018-02-24T08:30:24.546Z,-1.43
2018-02-24T08:30:50.018Z,-1.38
2018-02-24T08:31:15.497Z,-1.38
2018-02-24T08:31:41.015Z,-1.26
2018-02-24T08:32:06.518Z,-1.32
2018-02-24T08:32:31.974Z,-1.35
2018-02-24T08:32:57.466Z,-1.3
2018-02-24T08:33:22.932Z,-1.32
2018-02-24T08:33:48.493Z,-1.32
2018-02-24T08:34:13.909Z,-1.25
2018-02-24T08:34:39.402Z,-1.2
2018-02-24T08:35:04.865Z,-1.23
2018-02-24T08:35:30.363Z,-1.14
2018-02-24T08:35:55.862Z,-1.15
2018-02-24T08:36:21.350Z,-1.17
2018-02-24T08:36:46.813Z,-1.11
2018-02-24T08:37:12.295Z,-1.15
2018-02-24T08:37:37.784Z,-1.12
2018-02-24T08:38:03.267Z,-1.22
2018-02-24T08:38:28.781Z,-1.09
2018-02-24T08:38:54.249Z,-1.09
2018-02-24T08:39:19.788Z,-1.22
2018-02-24T08:39:45.242Z,-1.22
2018-02-24T08:40:10.789Z,-1.04
2018-02-24T08:40:36.184Z,-1.02
2018-02-24T08:41:01.671Z,-0.97
2018-02-24T08:41:27.128Z,-1.01
2018-02-24T08:41:52.587Z,-1.02
2018-02-24T08:42:18.162Z,-1.04
2018-02-24T08:42:43.664Z,-0.99
2018-02-24T08:43:09.148Z,-0.97
2018-02-24T08:43:34.669Z,-0.99
2018-02-24T08:44:00.135Z,-0.91
2018-02-24T08:44:25.614Z,-0.93
2018-02-24T08:44:51.059Z,-0.93
2018-02-24T08:45:16.528Z,-0.8
2018-02-24T08:45:42.061Z,-0.78
2018-02-24T08:46:07.623Z,-0.8
2018-02-24T08:46:33.002Z,-0.72
2018-02-24T08:46:58.475Z,-0.77
2018-02-24T08:47:23.991Z,-0.71
2018-02-24T08:47:49.452Z,-0.67
2018-02-24T08:48:14.997Z,-0.7
2018-02-24T08:48:40.435Z,-0.74
2018-02-24T08:49:05.992Z,-0.56
2018-02-24T08:49:31.430Z,-0.7
2018-02-24T08:49:56.917Z,-0.57
2018-02-24T08:50:22.432Z,-0.62
2018-02-24T08:50:47.887Z,-0.49
2018-02-24T08:51:13.354Z,-0.54
2018-02-24T08:51:38.813Z,-0.46
2018-02-24T08:52:04.309Z,-0.52
2018-02-24T08:52:29.805Z,-0.47
2018-02-24T08:52:55.318Z,-0.5
2018-02-24T08:53:20.788Z,-0.41
2018-02-24T08:53:46.264Z,-0.36
2018-02-24T08:54:11.730Z,-0.38
2018-02-24T08:54:37.260Z,-0.43
2018-02-24T08:55:02.761Z,-0.38
2018-02-24T08:55:28.456Z,-0.31
2018-02-24T08:55:53.929Z,-0.39
2018-02-24T08:56:19.437Z,-0.34
2018-02-24T08:56:44.873Z,-0.34
2018-02-24T08:57:10.337Z,-0.34
2018-02-24T08:57:36.200Z,-0.34
2018-02-24T08:58:01.701Z,-0.32
2018-02-24T08:58:27.191Z,-0.28
2018-02-24T08:58:52.643Z,-0.28
2018-02-24T08:59:18.177Z,-0.32
2018-02-24T08:59:43.650Z,-0.32
2018-02-24T09:00:09.124Z,-0.28
2018-02-24T09:00:34.604Z,-0.28
2018-02-24T09:01:00.075Z,-0.32
2018-02-24T09:01:25.648Z,-0.32
2018-02-24T09:01:51.063Z,-0.32
2018-02-24T09:02:16.527Z,-0.26
2018-02-24T09:02:42.020Z,-0.31
2018-02-24T09:03:07.534Z,-0.23
2018-02-24T09:03:32.993Z,-0.26
2018-02-24T09:03:58.483Z,-0.26
2018-02-24T09:04:23.948Z,-0.29
2018-02-24T09:04:49.439Z,-0.2
2018-02-24T09:05:14.924Z,-0.25
2018-02-24T09:05:40.542Z,-0.2
2018-02-24T09:06:05.990Z,-0.21
2018-02-24T09:06:31.499Z,-0.25
2018-02-24T09:06:57.004Z,-0.28
2018-02-24T09:07:22.618Z,-0.15
2018-02-24T09:07:48.430Z,-0.17
2018-02-24T09:08:13.896Z,-0.06
2018-02-24T09:08:39.599Z,-0.1
2018-02-24T09:09:05.231Z,-0.15
2018-02-24T09:09:30.832Z,-0.1
2018-02-24T09:09:56.385Z,-0.1
2018-02-24T09:10:22.012Z,-0.13
2018-02-24T09:10:47.442Z,-0.02
2018-02-24T09:11:12.943Z,-0.13
2018-02-24T09:11:38.462Z,-0.07
2018-02-24T09:12:03.972Z,0
2018-02-24T09:12:29.467Z,-0.07
2018-02-24T09:12:54.920Z,-0.14
2018-02-24T09:13:20.492Z,-0.11
2018-02-24T09:13:45.957Z,-0.13
2018-02-24T09:14:11.437Z,-0.11
2018-02-24T09:14:36.924Z,-0.07
2018-02-24T09:15:02.450Z,-0.1
2018-02-24T09:15:27.948Z,-0.14
2018-02-24T09:15:53.402Z,-0.08
2018-02-24T09:16:18.873Z,-0.07
2018-02-24T09:16:44.528Z,-0.11
2018-02-24T09:17:10.004Z,0.01
2018-02-24T09:17:35.516Z,0
2018-02-24T09:18:01.424Z,0.04
2018-02-24T09:18:27.365Z,0.01
2018-02-24T09:18:52.798Z,-0.06
2018-02-24T09:19:18.300Z,0.04
2018-02-24T09:19:43.790Z,0.03
2018-02-24T09:20:09.277Z,0.04
2018-02-24T09:20:34.864Z,0.1
2018-02-24T09:21:00.307Z,0.08
2018-02-24T09:21:26.086Z,0.01
2018-02-24T09:21:51.622Z,0.15
2018-02-24T09:22:17.146Z,0.11
2018-02-24T09:22:42.683Z,0.1
2018-02-24T09:23:08.131Z,0.15
2018-02-24T09:23:33.746Z,0.12
2018-02-24T09:23:59.149Z,0.11
2018-02-24T09:24:24.608Z,0.08
2018-02-24T09:24:50.073Z,0.12
2018-02-24T09:25:15.562Z,0.19
2018-02-24T09:25:41.090Z,0.05
2018-02-24T09:26:06.533Z,0.18
2018-02-24T09:26:32.042Z,0.15
2018-02-24T09:26:57.636Z,0.19
2018-02-24T09:27:22.993Z,0.22
2018-02-24T09:27:48.501Z,0.26
2018-02-24T09:28:13.993Z,0.18
2018-02-24T09:28:39.408Z,0.19
2018-02-24T09:29:04.884Z,0.23
2018-02-24T09:29:30.381Z,0.18
2018-02-24T09:29:55.884Z,0.18
2018-02-24T09:30:21.494Z,0.19
2018-02-24T09:30:47.071Z,0.18
2018-02-24T09:31:12.481Z,0.19
2018-02-24T09:31:37.993Z,0.34
2018-02-24T09:32:03.420Z,0.31
2018-02-24T09:32:28.904Z,0.26
2018-02-24T09:32:54.404Z,0.29
2018-02-24T09:33:19.915Z,0.25
2018-02-24T09:33:45.385Z,0.37
2018-02-24T09:34:11.076Z,0.4
2018-02-24T09:34:36.620Z,0.43
2018-02-24T09:35:02.046Z,0.34
2018-02-24T09:35:27.546Z,0.4
2018-02-24T09:35:53.095Z,0.39
2018-02-24T09:36:18.543Z,0.44
2018-02-24T09:36:44.156Z,0.36
2018-02-24T09:37:09.483Z,0.39
2018-02-24T09:37:34.963Z,0.36
2018-02-24T09:38:00.436Z,0.37
2018-02-24T09:38:25.930Z,0.4
2018-02-24T09:38:51.362Z,0.36
2018-02-24T09:39:16.850Z,0.39
2018-02-24T09:39:42.337Z,0.34
2018-02-24T09:40:07.828Z,0.37
2018-02-24T09:40:33.316Z,0.44
2018-02-24T09:40:59.078Z,0.37
2018-02-24T09:41:24.564Z,0.36
2018-02-24T09:41:50.024Z,0.47
2018-02-24T09:42:15.482Z,0.4
2018-02-24T09:42:40.951Z,0.36
2018-02-24T09:43:06.463Z,0.4
2018-02-24T09:43:31.930Z,0.4
2018-02-24T09:43:57.458Z,0.41
2018-02-24T09:44:23.007Z,0.5
2018-02-24T09:44:48.529Z,0.47
2018-02-24T09:45:13.960Z,0.49
2018-02-24T09:45:39.442Z,0.47
2018-02-24T09:46:04.952Z,0.5
2018-02-24T09:46:30.472Z,0.47
2018-02-24T09:46:55.924Z,0.44
2018-02-24T09:47:21.404Z,0.46
2018-02-24T09:47:46.854Z,0.4
2018-02-24T09:48:12.332Z,0.37
2018-02-24T09:48:37.814Z,0.32
2018-02-24T09:49:03.268Z,0.41
2018-02-24T09:49:28.757Z,0.43
2018-02-24T09:49:54.238Z,0.43
2018-02-24T09:50:19.727Z,0.46
2018-02-24T09:50:45.180Z,0.37
2018-02-24T09:51:10.618Z,0.47
2018-02-24T09:51:36.082Z,0.43
2018-02-24T09:52:01.529Z,0.39
2018-02-24T09:52:27.050Z,0.47
2018-02-24T09:52:52.603Z,0.4
2018-02-24T09:53:18.057Z,0.43
2018-02-24T09:53:43.561Z,0.44
2018-02-24T09:54:09.057Z,0.47
2018-02-24T09:54:34.590Z,0.47
2018-02-24T09:55:33.118Z,0.49
2018-02-24T09:55:58.603Z,0.59
2018-02-24T09:56:24.075Z,0.49
2018-02-24T09:56:49.583Z,0.56
2018-02-24T09:57:15.053Z,0.58
2018-02-24T09:57:40.544Z,0.68
2018-02-24T09:58:49.187Z,0.66
2018-02-24T09:59:14.730Z,0.68
2018-02-24T09:59:40.190Z,0.66
2018-02-24T10:00:05.658Z,0.66
2018-02-24T10:00:31.059Z,0.65
2018-02-24T10:00:56.517Z,0.73
2018-02-24T10:01:22.000Z,0.76
2018-02-24T10:01:47.459Z,0.7
2018-02-24T10:02:51.067Z,0.8
2018-02-24T10:03:16.563Z,0.77
2018-02-24T10:03:42.041Z,0.78
2018-02-24T10:04:07.564Z,0.86
2018-02-24T10:04:33.008Z,0.83
2018-02-24T10:04:58.488Z,0.84
2018-02-24T10:05:23.946Z,0.87
2018-02-24T10:05:49.448Z,0.84
2018-02-24T10:06:14.966Z,0.95
2018-02-24T10:06:40.466Z,0.92
2018-02-24T10:07:05.934Z,0.96
2018-02-24T10:07:31.403Z,0.91
2018-02-24T10:07:56.913Z,0.92
2018-02-24T10:08:22.404Z,0.98
2018-02-24T10:08:47.884Z,0.96
2018-02-24T10:09:13.408Z,0.83
2018-02-24T10:09:38.883Z,0.95
2018-02-24T10:10:04.348Z,0.81
2018-02-24T10:10:29.837Z,0.87
2018-02-24T10:10:55.308Z,0.98
2018-02-24T10:11:20.824Z,0.92
2018-02-24T10:11:46.227Z,0.92
2018-02-24T10:12:54.932Z,0.86
2018-02-24T10:13:20.433Z,0.95
2018-02-24T10:13:45.901Z,1.02
2018-02-24T10:14:11.382Z,0.96
2018-02-24T10:14:36.840Z,0.87
2018-02-24T10:15:02.382Z,0.96
2018-02-24T10:15:27.857Z,1.04
2018-02-24T10:15:53.356Z,0.88
2018-02-24T10:16:18.829Z,1.04
2018-02-24T10:16:44.323Z,0.99
2018-02-24T10:17:09.783Z,0.99
2018-02-24T10:17:35.249Z,1.12
2018-02-24T10:18:00.711Z,1.08
2018-02-24T10:18:26.160Z,1.06
2018-02-24T10:18:51.671Z,1.02
2018-02-24T10:19:17.139Z,0.99
2018-02-24T10:19:42.605Z,1.1
2018-02-24T10:20:08.095Z,0.98
2018-02-24T10:20:33.581Z,1.01
2018-02-24T10:20:59.063Z,0.98
2018-02-24T10:21:24.516Z,0.96
2018-02-24T10:21:49.992Z,0.98
2018-02-24T10:22:15.462Z,0.94
2018-02-24T10:22:40.909Z,1.04
2018-02-24T10:23:06.380Z,1.01
2018-02-24T10:23:31.846Z,1.01
2018-02-24T10:23:57.330Z,1.01
2018-02-24T10:24:22.795Z,0.92
2018-02-24T10:24:48.269Z,1.01
2018-02-24T10:25:13.688Z,0.94
2018-02-24T10:25:39.190Z,0.94
2018-02-24T10:26:04.657Z,1.01
2018-02-24T10:26:30.121Z,0.99
2018-02-24T10:26:55.596Z,1.02
2018-02-24T10:27:21.046Z,0.99
2018-02-24T10:27:46.553Z,1.04
2018-02-24T10:28:12.029Z,1.01
2018-02-24T10:28:37.525Z,1.1
2018-02-24T10:29:03.035Z,1.08
2018-02-24T10:29:28.465Z,1.06
2018-02-24T10:29:53.965Z,1.13
2018-02-24T10:30:19.452Z,1.17
2018-02-24T10:30:44.926Z,1.22
2018-02-24T10:31:10.421Z,1.19
2018-02-24T10:31:35.885Z,1.26
2018-02-24T10:32:01.362Z,1.19
2018-02-24T10:32:26.810Z,1.32
2018-02-24T10:32:52.255Z,1.31
2018-02-24T10:33:17.741Z,1.31
2018-02-24T10:33:43.218Z,1.31
2018-02-24T10:34:08.680Z,1.24
2018-02-24T10:34:34.187Z,1.3
2018-02-24T10:34:59.630Z,1.34
2018-02-24T10:35:25.136Z,1.38
2018-02-24T10:35:50.643Z,1.38
2018-02-24T10:36:16.141Z,1.31
2018-02-24T10:36:41.667Z,1.35
2018-02-24T10:37:07.118Z,1.5
2018-02-24T10:37:32.603Z,1.45
2018-02-24T10:37:58.167Z,1.45
2018-02-24T10:38:23.737Z,1.34
2018-02-24T10:38:49.228Z,1.48